sensor_id;sensor_type;location;lat;lon;timestamp;P1;durP1;ratioP1;P2;durP2;ratioP2
67712;SDS011;67640;55.784;49.138;2023-07-16T00:04:24;3.45;;;1.57;;
67712;SDS011;67640;55.784;49.138;2023-07-16T00:09:43;3.62;;;1.40;;
67712;SDS011;67640;55.784;49.138;2023-07-16T00:14:48;5.60;;;1.57;;
67712;SDS011;67640;55.784;49.138;2023-07-16T00:20:08;4.10;;;1.60;;
67712;SDS011;67640;55.784;49.138;2023-07-16T00:25:33;3.55;;;1.30;;
67712;SDS011;67640;55.784;49.138;2023-07-16T00:30:39;4.43;;;1.60;;
67712;SDS011;67640;55.784;49.138;2023-07-16T00:41:22;3.22;;;1.40;;
67712;SDS011;67640;55.784;49.138;2023-07-16T00:46:41;3.95;;;1.70;;
67712;SDS011;67640;55.784;49.138;2023-07-16T00:52:00;4.33;;;1.30;;
67712;SDS011;67640;55.784;49.138;2023-07-16T00:57:06;2.80;;;1.30;;
67712;SDS011;67640;55.784;49.138;2023-07-16T01:02:25;2.60;;;1.30;;
67712;SDS011;67640;55.784;49.138;2023-07-16T01:07:30;3.42;;;1.30;;
67712;SDS011;67640;55.784;49.138;2023-07-16T01:12:35;6.83;;;1.73;;
67712;SDS011;67640;55.784;49.138;2023-07-16T01:17:55;3.87;;;1.72;;
67712;SDS011;67640;55.784;49.138;2023-07-16T01:34:32;3.15;;;1.40;;
67712;SDS011;67640;55.784;49.138;2023-07-16T01:39:38;3.58;;;1.55;;
67712;SDS011;67640;55.784;49.138;2023-07-16T01:44:57;3.22;;;1.40;;
67712;SDS011;67640;55.784;49.138;2023-07-16T01:50:02;5.47;;;1.53;;
67712;SDS011;67640;55.784;49.138;2023-07-16T01:55:07;4.60;;;1.37;;
67712;SDS011;67640;55.784;49.138;2023-07-16T02:00:12;3.57;;;1.40;;
67712;SDS011;67640;55.784;49.138;2023-07-16T02:05:31;4.35;;;1.17;;
67712;SDS011;67640;55.784;49.138;2023-07-16T02:10:50;3.20;;;1.37;;
67712;SDS011;67640;55.784;49.138;2023-07-16T02:15:56;3.37;;;1.20;;
67712;SDS011;67640;55.784;49.138;2023-07-16T02:21:01;8.40;;;1.52;;
67712;SDS011;67640;55.784;49.138;2023-07-16T02:26:20;3.07;;;1.30;;
67712;SDS011;67640;55.784;49.138;2023-07-16T02:31:40;3.83;;;1.30;;
67712;SDS011;67640;55.784;49.138;2023-07-16T02:36:59;2.72;;;1.10;;
67712;SDS011;67640;55.784;49.138;2023-07-16T02:42:18;3.33;;;1.30;;
67712;SDS011;67640;55.784;49.138;2023-07-16T02:47:23;2.47;;;1.10;;
67712;SDS011;67640;55.784;49.138;2023-07-16T02:52:28;3.60;;;1.40;;
67712;SDS011;67640;55.784;49.138;2023-07-16T02:57:32;4.28;;;1.45;;
67712;SDS011;67640;55.784;49.138;2023-07-16T03:02:52;4.03;;;1.50;;
67712;SDS011;67640;55.784;49.138;2023-07-16T03:08:11;3.77;;;1.20;;
67712;SDS011;67640;55.784;49.138;2023-07-16T03:13:16;4.45;;;1.47;;
67712;SDS011;67640;55.784;49.138;2023-07-16T03:18:35;4.10;;;1.33;;
67712;SDS011;67640;55.784;49.138;2023-07-16T03:23:40;2.92;;;1.30;;
67712;SDS011;67640;55.784;49.138;2023-07-16T03:28:58;3.87;;;1.57;;
67712;SDS011;67640;55.784;49.138;2023-07-16T03:34:03;4.30;;;1.42;;
67712;SDS011;67640;55.784;49.138;2023-07-16T03:39:22;5.85;;;1.50;;
67712;SDS011;67640;55.784;49.138;2023-07-16T03:44:41;4.55;;;1.70;;
67712;SDS011;67640;55.784;49.138;2023-07-16T03:50:00;5.83;;;1.60;;
67712;SDS011;67640;55.784;49.138;2023-07-16T03:55:21;3.77;;;1.47;;
67712;SDS011;67640;55.784;49.138;2023-07-16T04:00:26;5.17;;;1.40;;
67712;SDS011;67640;55.784;49.138;2023-07-16T04:05:32;4.30;;;1.30;;
67712;SDS011;67640;55.784;49.138;2023-07-16T04:10:37;4.35;;;1.35;;
67712;SDS011;67640;55.784;49.138;2023-07-16T04:15:56;6.30;;;1.40;;
67712;SDS011;67640;55.784;49.138;2023-07-16T04:21:15;4.07;;;1.30;;
67712;SDS011;67640;55.784;49.138;2023-07-16T04:26:20;4.42;;;1.12;;
67712;SDS011;67640;55.784;49.138;2023-07-16T04:31:39;7.10;;;1.27;;
67712;SDS011;67640;55.784;49.138;2023-07-16T04:36:44;3.33;;;1.30;;
67712;SDS011;67640;55.784;49.138;2023-07-16T04:42:03;2.60;;;1.25;;
67712;SDS011;67640;55.784;49.138;2023-07-16T04:47:22;3.90;;;1.33;;
67712;SDS011;67640;55.784;49.138;2023-07-16T04:52:27;2.98;;;1.12;;
67712;SDS011;67640;55.784;49.138;2023-07-16T04:57:33;2.90;;;1.20;;
67712;SDS011;67640;55.784;49.138;2023-07-16T05:02:39;3.42;;;1.22;;
67712;SDS011;67640;55.784;49.138;2023-07-16T05:07:53;7.05;;;1.07;;
67712;SDS011;67640;55.784;49.138;2023-07-16T05:13:12;3.23;;;1.10;;
67712;SDS011;67640;55.784;49.138;2023-07-16T05:18:31;3.45;;;1.40;;
67712;SDS011;67640;55.784;49.138;2023-07-16T05:23:36;5.83;;;1.20;;
67712;SDS011;67640;55.784;49.138;2023-07-16T05:28:41;3.62;;;1.30;;
67712;SDS011;67640;55.784;49.138;2023-07-16T05:34:00;3.62;;;1.07;;
67712;SDS011;67640;55.784;49.138;2023-07-16T05:39:20;6.57;;;1.27;;
67712;SDS011;67640;55.784;49.138;2023-07-16T05:44:39;3.35;;;1.17;;
67712;SDS011;67640;55.784;49.138;2023-07-16T05:49:45;4.30;;;1.13;;
67712;SDS011;67640;55.784;49.138;2023-07-16T05:54:50;5.12;;;1.20;;
67712;SDS011;67640;55.784;49.138;2023-07-16T05:59:56;3.83;;;1.02;;
67712;SDS011;67640;55.784;49.138;2023-07-16T06:05:13;3.15;;;1.30;;
67712;SDS011;67640;55.784;49.138;2023-07-16T06:10:18;6.55;;;1.20;;
67712;SDS011;67640;55.784;49.138;2023-07-16T06:15:37;5.62;;;1.12;;
67712;SDS011;67640;55.784;49.138;2023-07-16T06:20:56;4.87;;;1.20;;
67712;SDS011;67640;55.784;49.138;2023-07-16T06:26:02;2.87;;;1.37;;
67712;SDS011;67640;55.784;49.138;2023-07-16T06:31:21;12.78;;;1.40;;
67712;SDS011;67640;55.784;49.138;2023-07-16T06:36:26;3.55;;;1.10;;
67712;SDS011;67640;55.784;49.138;2023-07-16T06:41:32;3.87;;;0.90;;
67712;SDS011;67640;55.784;49.138;2023-07-16T06:46:51;4.47;;;0.90;;
67712;SDS011;67640;55.784;49.138;2023-07-16T06:52:18;4.20;;;1.27;;
67712;SDS011;67640;55.784;49.138;2023-07-16T06:57:16;8.63;;;1.70;;
67712;SDS011;67640;55.784;49.138;2023-07-16T07:02:22;3.40;;;1.03;;
67712;SDS011;67640;55.784;49.138;2023-07-16T07:07:42;5.33;;;1.10;;
67712;SDS011;67640;55.784;49.138;2023-07-16T07:12:48;3.75;;;0.95;;
67712;SDS011;67640;55.784;49.138;2023-07-16T07:18:02;2.98;;;0.98;;
67712;SDS011;67640;55.784;49.138;2023-07-16T07:23:21;7.35;;;1.10;;
67712;SDS011;67640;55.784;49.138;2023-07-16T07:28:40;5.78;;;1.00;;
67712;SDS011;67640;55.784;49.138;2023-07-16T07:33:59;24.47;;;1.73;;
67712;SDS011;67640;55.784;49.138;2023-07-16T07:39:05;4.87;;;1.10;;
67712;SDS011;67640;55.784;49.138;2023-07-16T07:44:11;5.05;;;1.37;;
67712;SDS011;67640;55.784;49.138;2023-07-16T07:49:16;10.30;;;1.30;;
67712;SDS011;67640;55.784;49.138;2023-07-16T07:54:26;4.00;;;1.30;;
67712;SDS011;67640;55.784;49.138;2023-07-16T07:59:45;3.50;;;1.07;;
67712;SDS011;67640;55.784;49.138;2023-07-16T08:05:11;3.27;;;1.20;;
67712;SDS011;67640;55.784;49.138;2023-07-16T08:10:16;2.60;;;1.00;;
67712;SDS011;67640;55.784;49.138;2023-07-16T08:15:24;9.27;;;1.47;;
67712;SDS011;67640;55.784;49.138;2023-07-16T08:20:43;3.17;;;1.20;;
67712;SDS011;67640;55.784;49.138;2023-07-16T08:25:49;5.25;;;1.30;;
67712;SDS011;67640;55.784;49.138;2023-07-16T08:30:54;3.42;;;1.30;;
67712;SDS011;67640;55.784;49.138;2023-07-16T08:36:13;4.55;;;1.20;;
67712;SDS011;67640;55.784;49.138;2023-07-16T08:41:32;2.80;;;1.00;;
67712;SDS011;67640;55.784;49.138;2023-07-16T08:46:51;5.03;;;1.10;;
67712;SDS011;67640;55.784;49.138;2023-07-16T08:51:57;9.50;;;1.20;;
67712;SDS011;67640;55.784;49.138;2023-07-16T08:57:02;3.75;;;1.52;;
67712;SDS011;67640;55.784;49.138;2023-07-16T09:02:08;4.20;;;1.30;;
67712;SDS011;67640;55.784;49.138;2023-07-16T09:07:13;3.33;;;1.10;;
67712;SDS011;67640;55.784;49.138;2023-07-16T09:12:32;2.40;;;0.98;;
67712;SDS011;67640;55.784;49.138;2023-07-16T09:17:37;4.30;;;1.30;;
67712;SDS011;67640;55.784;49.138;2023-07-16T09:22:57;9.43;;;1.37;;
67712;SDS011;67640;55.784;49.138;2023-07-16T09:28:18;5.47;;;0.97;;
67712;SDS011;67640;55.784;49.138;2023-07-16T09:33:24;5.80;;;1.25;;
67712;SDS011;67640;55.784;49.138;2023-07-16T09:38:44;8.78;;;1.50;;
67712;SDS011;67640;55.784;49.138;2023-07-16T09:43:50;3.40;;;0.97;;
67712;SDS011;67640;55.784;49.138;2023-07-16T09:48:55;4.08;;;1.20;;
67712;SDS011;67640;55.784;49.138;2023-07-16T09:54:14;5.37;;;1.20;;
67712;SDS011;67640;55.784;49.138;2023-07-16T09:59:20;4.67;;;1.00;;
67712;SDS011;67640;55.784;49.138;2023-07-16T10:09:51;6.42;;;1.02;;
67712;SDS011;67640;55.784;49.138;2023-07-16T10:14:57;3.80;;;1.20;;
67712;SDS011;67640;55.784;49.138;2023-07-16T10:25:41;3.93;;;1.10;;
67712;SDS011;67640;55.784;49.138;2023-07-16T10:31:05;8.83;;;1.20;;
67712;SDS011;67640;55.784;49.138;2023-07-16T10:36:30;5.83;;;1.20;;
67712;SDS011;67640;55.784;49.138;2023-07-16T10:42:02;10.33;;;1.30;;
67712;SDS011;67640;55.784;49.138;2023-07-16T10:47:08;11.45;;;1.42;;
67712;SDS011;67640;55.784;49.138;2023-07-16T10:52:14;4.30;;;1.60;;
67712;SDS011;67640;55.784;49.138;2023-07-16T10:57:35;4.93;;;1.70;;
67712;SDS011;67640;55.784;49.138;2023-07-16T11:02:53;6.25;;;2.00;;
67712;SDS011;67640;55.784;49.138;2023-07-16T11:07:58;6.35;;;2.20;;
67712;SDS011;67640;55.784;49.138;2023-07-16T11:13:03;19.53;;;3.83;;
67712;SDS011;67640;55.784;49.138;2023-07-16T11:18:36;9.63;;;3.80;;
67712;SDS011;67640;55.784;49.138;2023-07-16T11:23:41;7.75;;;2.80;;
67712;SDS011;67640;55.784;49.138;2023-07-16T11:28:49;6.70;;;2.70;;
67712;SDS011;67640;55.784;49.138;2023-07-16T11:34:07;7.08;;;2.95;;
67712;SDS011;67640;55.784;49.138;2023-07-16T11:39:28;8.83;;;2.50;;
67712;SDS011;67640;55.784;49.138;2023-07-16T11:44:48;5.73;;;2.47;;
67712;SDS011;67640;55.784;49.138;2023-07-16T11:49:54;6.17;;;2.47;;
67712;SDS011;67640;55.784;49.138;2023-07-16T11:55:00;8.90;;;2.30;;
67712;SDS011;67640;55.784;49.138;2023-07-16T12:00:06;10.90;;;2.40;;
67712;SDS011;67640;55.784;49.138;2023-07-16T12:05:26;6.72;;;3.12;;
67712;SDS011;67640;55.784;49.138;2023-07-16T12:10:32;6.03;;;2.80;;
67712;SDS011;67640;55.784;49.138;2023-07-16T12:15:50;5.40;;;2.97;;
67712;SDS011;67640;55.784;49.138;2023-07-16T12:20:55;9.70;;;3.98;;
67712;SDS011;67640;55.784;49.138;2023-07-16T12:26:14;8.48;;;3.83;;
67712;SDS011;67640;55.784;49.138;2023-07-16T12:31:33;10.37;;;4.00;;
67712;SDS011;67640;55.784;49.138;2023-07-16T12:36:53;7.92;;;3.55;;
67712;SDS011;67640;55.784;49.138;2023-07-16T12:42:12;8.73;;;3.70;;
67712;SDS011;67640;55.784;49.138;2023-07-16T12:47:18;8.45;;;3.70;;
67712;SDS011;67640;55.784;49.138;2023-07-16T12:52:23;12.50;;;3.70;;
67712;SDS011;67640;55.784;49.138;2023-07-16T12:57:34;6.37;;;3.00;;
67712;SDS011;67640;55.784;49.138;2023-07-16T13:02:53;12.05;;;3.98;;
67712;SDS011;67640;55.784;49.138;2023-07-16T13:07:58;8.93;;;4.00;;
67712;SDS011;67640;55.784;49.138;2023-07-16T13:13:17;9.40;;;3.72;;
67712;SDS011;67640;55.784;49.138;2023-07-16T13:18:22;7.87;;;3.40;;
67712;SDS011;67640;55.784;49.138;2023-07-16T13:23:41;6.67;;;3.60;;
67712;SDS011;67640;55.784;49.138;2023-07-16T13:28:47;9.35;;;3.50;;
67712;SDS011;67640;55.784;49.138;2023-07-16T13:33:52;7.77;;;3.60;;
67712;SDS011;67640;55.784;49.138;2023-07-16T13:38:59;9.20;;;3.72;;
67712;SDS011;67640;55.784;49.138;2023-07-16T13:44:10;8.30;;;3.47;;
67712;SDS011;67640;55.784;49.138;2023-07-16T13:49:29;11.17;;;3.60;;
67712;SDS011;67640;55.784;49.138;2023-07-16T13:54:48;7.55;;;3.60;;
67712;SDS011;67640;55.784;49.138;2023-07-16T13:59:53;7.62;;;3.55;;
67712;SDS011;67640;55.784;49.138;2023-07-16T14:04:58;14.40;;;3.33;;
67712;SDS011;67640;55.784;49.138;2023-07-16T14:10:17;8.68;;;3.92;;
67712;SDS011;67640;55.784;49.138;2023-07-16T14:15:36;11.35;;;3.47;;
67712;SDS011;67640;55.784;49.138;2023-07-16T14:20:55;6.70;;;3.80;;
67712;SDS011;67640;55.784;49.138;2023-07-16T14:26:14;12.75;;;4.25;;
67712;SDS011;67640;55.784;49.138;2023-07-16T14:31:20;6.80;;;3.83;;
67712;SDS011;67640;55.784;49.138;2023-07-16T14:36:26;9.93;;;4.45;;
67712;SDS011;67640;55.784;49.138;2023-07-16T14:41:31;8.13;;;4.50;;
67712;SDS011;67640;55.784;49.138;2023-07-16T14:46:50;9.15;;;4.30;;
67712;SDS011;67640;55.784;49.138;2023-07-16T14:52:09;9.85;;;4.30;;
67712;SDS011;67640;55.784;49.138;2023-07-16T14:57:14;6.90;;;3.87;;
67712;SDS011;67640;55.784;49.138;2023-07-16T15:02:20;10.40;;;4.25;;
67712;SDS011;67640;55.784;49.138;2023-07-16T15:07:26;8.65;;;4.30;;
67712;SDS011;67640;55.784;49.138;2023-07-16T15:12:40;8.35;;;4.00;;
67712;SDS011;67640;55.784;49.138;2023-07-16T15:17:59;10.08;;;4.78;;
67712;SDS011;67640;55.784;49.138;2023-07-16T15:23:19;9.07;;;5.27;;
67712;SDS011;67640;55.784;49.138;2023-07-16T15:28:25;9.60;;;4.97;;
67712;SDS011;67640;55.784;49.138;2023-07-16T15:33:44;12.40;;;5.03;;
67712;SDS011;67640;55.784;49.138;2023-07-16T15:38:49;8.35;;;4.70;;
67712;SDS011;67640;55.784;49.138;2023-07-16T15:43:54;8.30;;;4.20;;
67712;SDS011;67640;55.784;49.138;2023-07-16T15:49:23;8.68;;;4.20;;
67712;SDS011;67640;55.784;49.138;2023-07-16T15:54:28;7.60;;;4.23;;
67712;SDS011;67640;55.784;49.138;2023-07-16T15:59:47;9.98;;;3.58;;
67712;SDS011;67640;55.784;49.138;2023-07-16T16:05:07;9.33;;;3.60;;
67712;SDS011;67640;55.784;49.138;2023-07-16T16:10:26;6.60;;;2.72;;
67712;SDS011;67640;55.784;49.138;2023-07-16T16:15:45;4.97;;;2.35;;
67712;SDS011;67640;55.784;49.138;2023-07-16T16:20:50;5.63;;;2.57;;
67712;SDS011;67640;55.784;49.138;2023-07-16T16:25:56;6.55;;;2.72;;
67712;SDS011;67640;55.784;49.138;2023-07-16T16:31:03;8.17;;;2.77;;
67712;SDS011;67640;55.784;49.138;2023-07-16T16:36:20;6.37;;;2.37;;
67712;SDS011;67640;55.784;49.138;2023-07-16T16:41:25;6.20;;;2.60;;
67712;SDS011;67640;55.784;49.138;2023-07-16T16:46:31;6.58;;;2.50;;
67712;SDS011;67640;55.784;49.138;2023-07-16T16:51:50;7.80;;;2.30;;
67712;SDS011;67640;55.784;49.138;2023-07-16T16:57:12;4.78;;;2.50;;
67712;SDS011;67640;55.784;49.138;2023-07-16T17:02:31;8.70;;;2.90;;
67712;SDS011;67640;55.784;49.138;2023-07-16T17:07:50;7.33;;;2.77;;
67712;SDS011;67640;55.784;49.138;2023-07-16T17:12:55;7.60;;;2.65;;
67712;SDS011;67640;55.784;49.138;2023-07-16T17:18:01;5.10;;;2.40;;
67712;SDS011;67640;55.784;49.138;2023-07-16T17:23:20;5.50;;;2.47;;
67712;SDS011;67640;55.784;49.138;2023-07-16T17:28:39;6.37;;;2.50;;
67712;SDS011;67640;55.784;49.138;2023-07-16T17:33:57;5.87;;;2.10;;
67712;SDS011;67640;55.784;49.138;2023-07-16T17:39:02;6.47;;;1.92;;
67712;SDS011;67640;55.784;49.138;2023-07-16T17:44:22;4.53;;;1.97;;
67712;SDS011;67640;55.784;49.138;2023-07-16T17:49:41;4.78;;;1.90;;
67712;SDS011;67640;55.784;49.138;2023-07-16T17:55:00;7.15;;;1.90;;
67712;SDS011;67640;55.784;49.138;2023-07-16T18:00:19;7.13;;;2.00;;
67712;SDS011;67640;55.784;49.138;2023-07-16T18:05:25;9.90;;;2.58;;
67712;SDS011;67640;55.784;49.138;2023-07-16T18:10:30;6.43;;;2.00;;
67712;SDS011;67640;55.784;49.138;2023-07-16T18:15:36;5.42;;;2.15;;
67712;SDS011;67640;55.784;49.138;2023-07-16T18:20:51;8.75;;;1.85;;
67712;SDS011;67640;55.784;49.138;2023-07-16T18:26:19;5.00;;;2.00;;
67712;SDS011;67640;55.784;49.138;2023-07-16T18:31:24;7.85;;;2.00;;
67712;SDS011;67640;55.784;49.138;2023-07-16T18:36:29;4.25;;;2.00;;
67712;SDS011;67640;55.784;49.138;2023-07-16T18:41:34;8.50;;;1.90;;
67712;SDS011;67640;55.784;49.138;2023-07-16T18:46:54;10.55;;;2.00;;
67712;SDS011;67640;55.784;49.138;2023-07-16T18:52:13;5.28;;;1.90;;
67712;SDS011;67640;55.784;49.138;2023-07-16T18:57:30;5.27;;;2.13;;
67712;SDS011;67640;55.784;49.138;2023-07-16T19:02:36;3.70;;;1.90;;
67712;SDS011;67640;55.784;49.138;2023-07-16T19:07:41;8.18;;;1.85;;
67712;SDS011;67640;55.784;49.138;2023-07-16T19:13:00;6.33;;;1.90;;
67712;SDS011;67640;55.784;49.138;2023-07-16T19:18:19;7.25;;;1.85;;
67712;SDS011;67640;55.784;49.138;2023-07-16T19:23:38;5.17;;;1.80;;
67712;SDS011;67640;55.784;49.138;2023-07-16T19:28:57;8.68;;;1.77;;
67712;SDS011;67640;55.784;49.138;2023-07-16T19:34:03;4.17;;;1.90;;
67712;SDS011;67640;55.784;49.138;2023-07-16T19:39:20;3.40;;;1.60;;
67712;SDS011;67640;55.784;49.138;2023-07-16T19:44:26;7.55;;;2.25;;
67712;SDS011;67640;55.784;49.138;2023-07-16T19:49:45;6.75;;;1.90;;
67712;SDS011;67640;55.784;49.138;2023-07-16T19:54:51;4.60;;;1.75;;
67712;SDS011;67640;55.784;49.138;2023-07-16T20:00:10;5.00;;;1.90;;
67712;SDS011;67640;55.784;49.138;2023-07-16T20:05:18;4.60;;;1.90;;
67712;SDS011;67640;55.784;49.138;2023-07-16T20:10:37;6.15;;;1.92;;
67712;SDS011;67640;55.784;49.138;2023-07-16T20:15:42;4.13;;;1.90;;
67712;SDS011;67640;55.784;49.138;2023-07-16T20:20:48;4.72;;;1.80;;
67712;SDS011;67640;55.784;49.138;2023-07-16T20:26:07;9.43;;;1.98;;
67712;SDS011;67640;55.784;49.138;2023-07-16T20:31:15;5.55;;;2.10;;
67712;SDS011;67640;55.784;49.138;2023-07-16T20:36:34;6.70;;;1.80;;
67712;SDS011;67640;55.784;49.138;2023-07-16T20:41:39;6.20;;;1.93;;
67712;SDS011;67640;55.784;49.138;2023-07-16T20:46:44;4.87;;;1.92;;
67712;SDS011;67640;55.784;49.138;2023-07-16T20:52:03;4.78;;;1.80;;
67712;SDS011;67640;55.784;49.138;2023-07-16T20:57:08;7.20;;;1.85;;
67712;SDS011;67640;55.784;49.138;2023-07-16T21:02:28;3.90;;;1.77;;
67712;SDS011;67640;55.784;49.138;2023-07-16T21:07:34;5.90;;;1.90;;
67712;SDS011;67640;55.784;49.138;2023-07-16T21:12:39;7.72;;;2.02;;
67712;SDS011;67640;55.784;49.138;2023-07-16T21:17:54;4.30;;;1.57;;
67712;SDS011;67640;55.784;49.138;2023-07-16T21:23:13;7.10;;;1.80;;
67712;SDS011;67640;55.784;49.138;2023-07-16T21:28:32;6.05;;;1.70;;
67712;SDS011;67640;55.784;49.138;2023-07-16T21:33:52;7.00;;;1.70;;
67712;SDS011;67640;55.784;49.138;2023-07-16T21:38:58;5.60;;;1.80;;
67712;SDS011;67640;55.784;49.138;2023-07-16T21:44:02;8.33;;;1.90;;
67712;SDS011;67640;55.784;49.138;2023-07-16T21:49:20;5.67;;;1.57;;
67712;SDS011;67640;55.784;49.138;2023-07-16T21:54:25;5.62;;;1.85;;
67712;SDS011;67640;55.784;49.138;2023-07-16T21:59:44;4.70;;;1.67;;
67712;SDS011;67640;55.784;49.138;2023-07-16T22:05:03;5.20;;;1.87;;
67712;SDS011;67640;55.784;49.138;2023-07-16T22:10:22;6.00;;;1.65;;
67712;SDS011;67640;55.784;49.138;2023-07-16T22:15:41;5.03;;;1.83;;
67712;SDS011;67640;55.784;49.138;2023-07-16T22:20:46;5.92;;;1.82;;
67712;SDS011;67640;55.784;49.138;2023-07-16T22:25:51;6.97;;;2.00;;
67712;SDS011;67640;55.784;49.138;2023-07-16T22:30:57;3.83;;;1.80;;
67712;SDS011;67640;55.784;49.138;2023-07-16T22:36:14;9.40;;;1.70;;
67712;SDS011;67640;55.784;49.138;2023-07-16T22:41:20;5.28;;;1.80;;
67712;SDS011;67640;55.784;49.138;2023-07-16T22:46:25;4.47;;;2.00;;
67712;SDS011;67640;55.784;49.138;2023-07-16T22:51:44;6.20;;;1.80;;
67712;SDS011;67640;55.784;49.138;2023-07-16T22:57:03;4.62;;;1.70;;
67712;SDS011;67640;55.784;49.138;2023-07-16T23:02:22;5.85;;;1.40;;
67712;SDS011;67640;55.784;49.138;2023-07-16T23:07:28;5.10;;;2.08;;
67712;SDS011;67640;55.784;49.138;2023-07-16T23:12:33;6.67;;;2.17;;
67712;SDS011;67640;55.784;49.138;2023-07-16T23:17:38;7.75;;;1.70;;
67712;SDS011;67640;55.784;49.138;2023-07-16T23:22:57;5.95;;;1.70;;
67712;SDS011;67640;55.784;49.138;2023-07-16T23:28:17;3.75;;;1.80;;
67712;SDS011;67640;55.784;49.138;2023-07-16T23:33:21;4.85;;;2.10;;
67712;SDS011;67640;55.784;49.138;2023-07-16T23:38:26;7.43;;;2.07;;
67712;SDS011;67640;55.784;49.138;2023-07-16T23:43:32;3.72;;;1.75;;
67712;SDS011;67640;55.784;49.138;2023-07-16T23:48:52;4.97;;;2.08;;
67712;SDS011;67640;55.784;49.138;2023-07-16T23:54:22;8.07;;;2.00;;
67712;SDS011;67640;55.784;49.138;2023-07-16T23:59:27;5.55;;;1.70;;
